sensor_id;sensor_type;location;lat;lon;timestamp;pressure;altitude;pressure_sealevel;temperature;humidity
49063;BME280;34876;51.464;-0.150;2023-02-01T00:01:40;102441.07;;;16.64;38.04
49063;BME280;34876;51.464;-0.150;2023-02-01T00:04:09;102449.94;;;16.59;37.98
49063;BME280;34876;51.464;-0.150;2023-02-01T00:06:40;102455.19;;;16.62;38.06
49063;BME280;34876;51.464;-0.150;2023-02-01T00:09:09;102463.76;;;16.66;38.18
49063;BME280;34876;51.464;-0.150;2023-02-01T00:11:39;102463.56;;;16.65;37.98
49063;BME280;34876;51.464;-0.150;2023-02-01T00:14:08;102465.60;;;16.58;38.27
49063;BME280;34876;51.464;-0.150;2023-02-01T00:16:37;102461.78;;;16.65;37.97
49063;BME280;34876;51.464;-0.150;2023-02-01T00:19:07;102459.15;;;16.24;36.86
49063;BME280;34876;51.464;-0.150;2023-02-01T00:21:37;102450.28;;;16.59;38.07
49063;BME280;34876;51.464;-0.150;2023-02-01T00:24:09;102453.11;;;16.62;37.98
49063;BME280;34876;51.464;-0.150;2023-02-01T00:26:39;102456.32;;;16.64;38.01
49063;BME280;34876;51.464;-0.150;2023-02-01T00:29:11;102456.68;;;16.65;38.04
49063;BME280;34876;51.464;-0.150;2023-02-01T00:31:41;102454.33;;;16.65;37.88
49063;BME280;34876;51.464;-0.150;2023-02-01T00:34:13;102450.42;;;16.66;37.86
49063;BME280;34876;51.464;-0.150;2023-02-01T00:36:43;102443.73;;;16.65;37.88
49063;BME280;34876;51.464;-0.150;2023-02-01T00:39:13;102431.06;;;16.64;37.86
49063;BME280;34876;51.464;-0.150;2023-02-01T00:41:42;102418.00;;;16.64;37.85
49063;BME280;34876;51.464;-0.150;2023-02-01T00:44:11;102418.19;;;16.65;37.87
49063;BME280;34876;51.464;-0.150;2023-02-01T00:46:40;102411.64;;;16.64;37.92
49063;BME280;34876;51.464;-0.150;2023-02-01T00:49:09;102405.70;;;16.60;37.91
49063;BME280;34876;51.464;-0.150;2023-02-01T00:51:38;102405.88;;;16.61;37.87
49063;BME280;34876;51.464;-0.150;2023-02-01T00:54:08;102406.08;;;16.62;37.85
49063;BME280;34876;51.464;-0.150;2023-02-01T00:56:36;102399.07;;;16.64;37.97
49063;BME280;34876;51.464;-0.150;2023-02-01T00:59:05;102400.22;;;16.65;37.95
49063;BME280;34876;51.464;-0.150;2023-02-01T01:03:46;102403.56;;;16.65;37.79
49063;BME280;34876;51.464;-0.150;2023-02-01T01:06:19;102408.10;;;16.64;37.86
49063;BME280;34876;51.464;-0.150;2023-02-01T01:08:51;102409.36;;;16.63;38.05
49063;BME280;34876;51.464;-0.150;2023-02-01T01:11:23;102406.93;;;16.64;37.87
49063;BME280;34876;51.464;-0.150;2023-02-01T01:13:53;102403.21;;;16.64;37.98
49063;BME280;34876;51.464;-0.150;2023-02-01T01:16:24;102393.14;;;16.64;37.91
49063;BME280;34876;51.464;-0.150;2023-02-01T01:18:54;102391.18;;;16.64;37.91
49063;BME280;34876;51.464;-0.150;2023-02-01T01:21:24;102392.52;;;16.64;38.08
49063;BME280;34876;51.464;-0.150;2023-02-01T01:23:54;102390.77;;;16.65;38.46
49063;BME280;34876;51.464;-0.150;2023-02-01T01:26:24;102390.91;;;16.67;37.97
49063;BME280;34876;51.464;-0.150;2023-02-01T01:28:55;102385.06;;;16.63;37.97
49063;BME280;34876;51.464;-0.150;2023-02-01T01:31:25;102382.37;;;16.64;37.93
49063;BME280;34876;51.464;-0.150;2023-02-01T01:33:55;102372.80;;;16.62;38.04
49063;BME280;34876;51.464;-0.150;2023-02-01T01:36:25;102372.52;;;16.62;37.93
49063;BME280;34876;51.464;-0.150;2023-02-01T01:38:54;102375.06;;;16.61;37.93
49063;BME280;34876;51.464;-0.150;2023-02-01T01:41:25;102375.56;;;16.64;38.00
49063;BME280;34876;51.464;-0.150;2023-02-01T01:43:56;102374.75;;;16.60;38.21
49063;BME280;34876;51.464;-0.150;2023-02-01T01:46:27;102380.13;;;16.64;38.18
49063;BME280;34876;51.464;-0.150;2023-02-01T01:49:02;102379.80;;;16.61;38.41
49063;BME280;34876;51.464;-0.150;2023-02-01T01:51:35;102377.88;;;16.62;38.92
49063;BME280;34876;51.464;-0.150;2023-02-01T01:54:11;102379.93;;;16.63;38.36
49063;BME280;34876;51.464;-0.150;2023-02-01T01:56:40;102371.23;;;16.65;38.33
49063;BME280;34876;51.464;-0.150;2023-02-01T01:59:10;102373.21;;;16.36;39.04
49063;BME280;34876;51.464;-0.150;2023-02-01T02:01:40;102371.71;;;16.63;38.46
49063;BME280;34876;51.464;-0.150;2023-02-01T02:04:09;102370.10;;;16.60;38.47
49063;BME280;34876;51.464;-0.150;2023-02-01T02:06:43;102370.00;;;16.65;38.33
49063;BME280;34876;51.464;-0.150;2023-02-01T02:09:14;102372.52;;;16.62;38.72
49063;BME280;34876;51.464;-0.150;2023-02-01T02:11:43;102373.51;;;16.13;39.21
49063;BME280;34876;51.464;-0.150;2023-02-01T02:14:15;102364.64;;;16.57;38.65
49063;BME280;34876;51.464;-0.150;2023-02-01T02:16:54;102369.75;;;16.61;38.45
49063;BME280;34876;51.464;-0.150;2023-02-01T02:20:52;102361.16;;;16.60;38.61
49063;BME280;34876;51.464;-0.150;2023-02-01T02:23:56;102362.02;;;16.59;38.42
49063;BME280;34876;51.464;-0.150;2023-02-01T02:26:46;102358.82;;;16.55;38.59
49063;BME280;34876;51.464;-0.150;2023-02-01T02:30:10;102366.39;;;16.61;38.47
49063;BME280;34876;51.464;-0.150;2023-02-01T02:35:02;102353.77;;;16.59;38.61
49063;BME280;34876;51.464;-0.150;2023-02-01T02:37:40;102341.49;;;16.59;38.44
49063;BME280;34876;51.464;-0.150;2023-02-01T02:40:16;102345.67;;;16.52;38.69
49063;BME280;34876;51.464;-0.150;2023-02-01T02:42:52;102341.58;;;16.60;38.74
49063;BME280;34876;51.464;-0.150;2023-02-01T02:45:30;102341.40;;;16.57;38.70
49063;BME280;34876;51.464;-0.150;2023-02-01T02:48:09;102329.23;;;16.60;38.55
49063;BME280;34876;51.464;-0.150;2023-02-01T02:50:43;102324.98;;;16.60;38.71
49063;BME280;34876;51.464;-0.150;2023-02-01T02:53:17;102333.85;;;16.58;38.80
49063;BME280;34876;51.464;-0.150;2023-02-01T02:55:47;102331.21;;;16.46;37.20
49063;BME280;34876;51.464;-0.150;2023-02-01T02:58:19;102332.37;;;16.52;38.66
49063;BME280;34876;51.464;-0.150;2023-02-01T03:00:50;102330.65;;;16.21;39.23
49063;BME280;34876;51.464;-0.150;2023-02-01T03:03:20;102328.48;;;16.49;38.98
49063;BME280;34876;51.464;-0.150;2023-02-01T03:05:50;102333.72;;;16.59;38.99
49063;BME280;34876;51.464;-0.150;2023-02-01T03:08:21;102334.42;;;16.55;38.63
49063;BME280;34876;51.464;-0.150;2023-02-01T03:10:54;102333.90;;;16.46;39.38
49063;BME280;34876;51.464;-0.150;2023-02-01T03:13:32;102325.47;;;16.56;38.96
49063;BME280;34876;51.464;-0.150;2023-02-01T03:16:09;102328.34;;;15.81;36.76
49063;BME280;34876;51.464;-0.150;2023-02-01T03:18:45;102325.00;;;16.52;39.28
49063;BME280;34876;51.464;-0.150;2023-02-01T03:21:21;102315.69;;;16.26;39.41
49063;BME280;34876;51.464;-0.150;2023-02-01T03:23:53;102312.58;;;16.53;38.85
49063;BME280;34876;51.464;-0.150;2023-02-01T03:26:26;102318.62;;;16.57;38.90
49063;BME280;34876;51.464;-0.150;2023-02-01T03:29:00;102321.41;;;16.55;38.71
49063;BME280;34876;51.464;-0.150;2023-02-01T03:31:31;102318.94;;;16.53;38.82
49063;BME280;34876;51.464;-0.150;2023-02-01T03:34:00;102318.50;;;16.58;38.90
49063;BME280;34876;51.464;-0.150;2023-02-01T03:36:33;102331.59;;;16.57;38.67
49063;BME280;34876;51.464;-0.150;2023-02-01T03:39:09;102332.74;;;16.55;39.06
49063;BME280;34876;51.464;-0.150;2023-02-01T03:41:43;102330.70;;;16.54;38.55
49063;BME280;34876;51.464;-0.150;2023-02-01T03:44:16;102331.98;;;16.39;38.87
49063;BME280;34876;51.464;-0.150;2023-02-01T03:46:50;102334.65;;;16.52;38.60
49063;BME280;34876;51.464;-0.150;2023-02-01T03:49:24;102343.88;;;16.51;38.74
49063;BME280;34876;51.464;-0.150;2023-02-01T03:51:55;102348.28;;;16.54;38.85
49063;BME280;34876;51.464;-0.150;2023-02-01T03:54:27;102352.12;;;16.32;38.88
49063;BME280;34876;51.464;-0.150;2023-02-01T03:57:01;102348.54;;;16.51;38.71
49063;BME280;34876;51.464;-0.150;2023-02-01T03:59:31;102345.81;;;16.50;38.64
49063;BME280;34876;51.464;-0.150;2023-02-01T04:02:00;102345.39;;;16.54;38.93
49063;BME280;34876;51.464;-0.150;2023-02-01T04:04:29;102349.34;;;16.52;38.74
49063;BME280;34876;51.464;-0.150;2023-02-01T04:06:59;102351.02;;;16.39;38.96
49063;BME280;34876;51.464;-0.150;2023-02-01T04:09:28;102342.97;;;16.35;39.20
49063;BME280;34876;51.464;-0.150;2023-02-01T04:11:57;102336.54;;;16.48;38.73
49063;BME280;34876;51.464;-0.150;2023-02-01T04:14:25;102333.98;;;16.48;39.03
49063;BME280;34876;51.464;-0.150;2023-02-01T04:16:55;102335.36;;;16.48;38.68
49063;BME280;34876;51.464;-0.150;2023-02-01T04:19:24;102331.13;;;16.48;38.66
49063;BME280;34876;51.464;-0.150;2023-02-01T04:21:52;102319.07;;;16.50;38.74
49063;BME280;34876;51.464;-0.150;2023-02-01T04:24:21;102319.46;;;16.47;38.62
49063;BME280;34876;51.464;-0.150;2023-02-01T04:26:50;102316.05;;;16.47;38.98
49063;BME280;34876;51.464;-0.150;2023-02-01T04:29:19;102319.04;;;16.46;38.80
49063;BME280;34876;51.464;-0.150;2023-02-01T04:31:48;102329.88;;;16.38;39.27
49063;BME280;34876;51.464;-0.150;2023-02-01T04:34:17;102329.90;;;16.45;38.86
49063;BME280;34876;51.464;-0.150;2023-02-01T04:36:46;102326.82;;;16.48;38.80
49063;BME280;34876;51.464;-0.150;2023-02-01T04:39:14;102330.41;;;16.45;39.01
49063;BME280;34876;51.464;-0.150;2023-02-01T04:41:43;102332.08;;;16.45;38.64
49063;BME280;34876;51.464;-0.150;2023-02-01T04:44:14;102327.30;;;16.39;38.99
49063;BME280;34876;51.464;-0.150;2023-02-01T04:46:44;102320.12;;;15.96;38.71
49063;BME280;34876;51.464;-0.150;2023-02-01T04:49:13;102313.30;;;16.38;38.82
49063;BME280;34876;51.464;-0.150;2023-02-01T04:51:42;102320.61;;;16.41;38.70
49063;BME280;34876;51.464;-0.150;2023-02-01T04:54:11;102326.77;;;16.43;38.71
49063;BME280;34876;51.464;-0.150;2023-02-01T04:56:40;102330.64;;;16.45;38.67
49063;BME280;34876;51.464;-0.150;2023-02-01T04:59:10;102320.93;;;16.42;38.76
49063;BME280;34876;51.464;-0.150;2023-02-01T05:01:39;102327.13;;;16.34;38.87
49063;BME280;34876;51.464;-0.150;2023-02-01T05:04:08;102329.05;;;16.41;38.55
49063;BME280;34876;51.464;-0.150;2023-02-01T05:06:37;102332.00;;;16.41;38.90
49063;BME280;34876;51.464;-0.150;2023-02-01T05:09:06;102339.79;;;16.40;38.80
49063;BME280;34876;51.464;-0.150;2023-02-01T05:11:35;102344.72;;;16.39;38.80
49063;BME280;34876;51.464;-0.150;2023-02-01T05:14:03;102346.88;;;16.32;38.73
49063;BME280;34876;51.464;-0.150;2023-02-01T05:16:32;102343.13;;;16.22;39.06
49063;BME280;34876;51.464;-0.150;2023-02-01T05:19:01;102345.87;;;16.38;38.68
49063;BME280;34876;51.464;-0.150;2023-02-01T05:21:30;102346.74;;;16.36;38.57
49063;BME280;34876;51.464;-0.150;2023-02-01T05:23:59;102348.78;;;16.32;38.71
49063;BME280;34876;51.464;-0.150;2023-02-01T05:26:28;102349.08;;;16.36;38.79
49063;BME280;34876;51.464;-0.150;2023-02-01T05:28:57;102342.73;;;16.38;39.01
49063;BME280;34876;51.464;-0.150;2023-02-01T05:31:26;102340.31;;;16.39;38.61
49063;BME280;34876;51.464;-0.150;2023-02-01T05:33:55;102345.84;;;16.36;38.81
49063;BME280;34876;51.464;-0.150;2023-02-01T05:36:24;102343.42;;;16.34;39.04
49063;BME280;34876;51.464;-0.150;2023-02-01T05:38:53;102340.76;;;16.36;39.00
49063;BME280;34876;51.464;-0.150;2023-02-01T05:41:21;102345.05;;;16.36;39.44
49063;BME280;34876;51.464;-0.150;2023-02-01T05:43:52;102345.55;;;16.16;39.47
49063;BME280;34876;51.464;-0.150;2023-02-01T05:46:21;102342.24;;;16.32;39.15
49063;BME280;34876;51.464;-0.150;2023-02-01T05:48:50;102340.36;;;16.31;38.98
49063;BME280;34876;51.464;-0.150;2023-02-01T05:51:19;102338.78;;;16.27;38.87
49063;BME280;34876;51.464;-0.150;2023-02-01T05:53:48;102333.04;;;16.34;38.67
49063;BME280;34876;51.464;-0.150;2023-02-01T05:56:17;102337.39;;;16.37;39.07
49063;BME280;34876;51.464;-0.150;2023-02-01T05:58:46;102330.89;;;16.41;39.54
49063;BME280;34876;51.464;-0.150;2023-02-01T06:01:15;102329.83;;;16.38;38.96
49063;BME280;34876;51.464;-0.150;2023-02-01T06:03:44;102331.26;;;16.34;39.12
49063;BME280;34876;51.464;-0.150;2023-02-01T06:06:13;102333.50;;;16.39;39.03
49063;BME280;34876;51.464;-0.150;2023-02-01T06:08:42;102329.81;;;16.39;39.24
49063;BME280;34876;51.464;-0.150;2023-02-01T06:11:11;102328.48;;;16.39;38.95
49063;BME280;34876;51.464;-0.150;2023-02-01T06:13:40;102331.10;;;16.23;39.67
49063;BME280;34876;51.464;-0.150;2023-02-01T06:16:09;102327.69;;;16.34;39.15
49063;BME280;34876;51.464;-0.150;2023-02-01T06:18:38;102330.15;;;16.31;38.96
49063;BME280;34876;51.464;-0.150;2023-02-01T06:21:08;102329.54;;;16.23;39.42
49063;BME280;34876;51.464;-0.150;2023-02-01T06:23:37;102331.56;;;16.30;39.57
49063;BME280;34876;51.464;-0.150;2023-02-01T06:26:06;102334.28;;;16.36;38.93
49063;BME280;34876;51.464;-0.150;2023-02-01T06:28:35;102341.34;;;16.35;38.71
49063;BME280;34876;51.464;-0.150;2023-02-01T06:31:05;102335.29;;;16.26;39.04
49063;BME280;34876;51.464;-0.150;2023-02-01T06:33:35;102326.19;;;16.34;38.77
49063;BME280;34876;51.464;-0.150;2023-02-01T06:36:06;102329.96;;;16.37;38.89
49063;BME280;34876;51.464;-0.150;2023-02-01T06:38:35;102325.88;;;16.37;39.29
49063;BME280;34876;51.464;-0.150;2023-02-01T06:41:05;102329.35;;;16.37;38.74
49063;BME280;34876;51.464;-0.150;2023-02-01T06:43:34;102326.03;;;16.26;39.12
49063;BME280;34876;51.464;-0.150;2023-02-01T06:46:04;102324.53;;;16.38;39.18
49063;BME280;34876;51.464;-0.150;2023-02-01T06:48:33;102329.69;;;16.37;38.87
49063;BME280;34876;51.464;-0.150;2023-02-01T06:51:03;102327.67;;;16.40;39.53
49063;BME280;34876;51.464;-0.150;2023-02-01T06:53:32;102321.84;;;16.39;39.01
49063;BME280;34876;51.464;-0.150;2023-02-01T06:56:02;102321.32;;;16.37;38.78
49063;BME280;34876;51.464;-0.150;2023-02-01T06:58:33;102323.49;;;16.37;39.23
49063;BME280;34876;51.464;-0.150;2023-02-01T07:01:05;102328.72;;;16.38;38.89
49063;BME280;34876;51.464;-0.150;2023-02-01T07:03:34;102327.72;;;16.35;39.02
49063;BME280;34876;51.464;-0.150;2023-02-01T07:06:04;102339.15;;;16.20;39.16
49063;BME280;34876;51.464;-0.150;2023-02-01T07:08:35;102347.26;;;16.35;39.09
49063;BME280;34876;51.464;-0.150;2023-02-01T07:11:06;102356.74;;;16.36;38.82
49063;BME280;34876;51.464;-0.150;2023-02-01T07:13:36;102359.91;;;16.39;38.68
49063;BME280;34876;51.464;-0.150;2023-02-01T07:16:08;102361.65;;;16.38;38.66
49063;BME280;34876;51.464;-0.150;2023-02-01T07:18:37;102366.97;;;16.40;38.90
49063;BME280;34876;51.464;-0.150;2023-02-01T07:21:08;102366.44;;;16.39;38.68
49063;BME280;34876;51.464;-0.150;2023-02-01T07:23:37;102370.35;;;16.15;39.09
49063;BME280;34876;51.464;-0.150;2023-02-01T07:26:07;102362.30;;;16.34;38.60
49063;BME280;34876;51.464;-0.150;2023-02-01T07:28:38;102370.49;;;16.35;38.62
49063;BME280;34876;51.464;-0.150;2023-02-01T07:31:09;102376.57;;;16.38;38.61
49063;BME280;34876;51.464;-0.150;2023-02-01T07:33:38;102381.09;;;16.38;38.46
49063;BME280;34876;51.464;-0.150;2023-02-01T07:36:11;102388.80;;;16.43;39.08
49063;BME280;34876;51.464;-0.150;2023-02-01T07:38:40;102390.19;;;16.43;38.62
49063;BME280;34876;51.464;-0.150;2023-02-01T07:41:10;102391.79;;;16.41;38.61
49063;BME280;34876;51.464;-0.150;2023-02-01T07:43:39;102392.62;;;16.34;38.74
49063;BME280;34876;51.464;-0.150;2023-02-01T07:46:09;102393.23;;;16.42;38.76
49063;BME280;34876;51.464;-0.150;2023-02-01T07:48:38;102395.24;;;16.42;38.84
49063;BME280;34876;51.464;-0.150;2023-02-01T07:51:09;102403.77;;;16.43;38.79
49063;BME280;34876;51.464;-0.150;2023-02-01T07:53:39;102401.18;;;16.46;39.38
49063;BME280;34876;51.464;-0.150;2023-02-01T07:56:11;102404.81;;;16.49;39.09
49063;BME280;34876;51.464;-0.150;2023-02-01T07:58:42;102404.91;;;16.50;38.90
49063;BME280;34876;51.464;-0.150;2023-02-01T08:01:14;102397.52;;;16.50;39.67
49063;BME280;34876;51.464;-0.150;2023-02-01T08:03:43;102404.02;;;16.55;39.69
49063;BME280;34876;51.464;-0.150;2023-02-01T08:06:13;102400.40;;;16.49;39.21
49063;BME280;34876;51.464;-0.150;2023-02-01T08:08:41;102397.63;;;16.51;38.80
49063;BME280;34876;51.464;-0.150;2023-02-01T08:11:11;102395.82;;;16.52;38.89
49063;BME280;34876;51.464;-0.150;2023-02-01T08:13:40;102392.33;;;16.53;38.77
49063;BME280;34876;51.464;-0.150;2023-02-01T08:16:11;102403.38;;;16.53;38.92
49063;BME280;34876;51.464;-0.150;2023-02-01T08:18:41;102403.97;;;16.54;38.62
49063;BME280;34876;51.464;-0.150;2023-02-01T08:21:13;102401.32;;;16.55;38.80
49063;BME280;34876;51.464;-0.150;2023-02-01T08:23:43;102400.81;;;16.56;38.74
49063;BME280;34876;51.464;-0.150;2023-02-01T08:26:14;102400.15;;;16.58;39.38
49063;BME280;34876;51.464;-0.150;2023-02-01T08:28:46;102395.33;;;16.58;39.17
49063;BME280;34876;51.464;-0.150;2023-02-01T08:31:18;102393.24;;;16.62;39.17
49063;BME280;34876;51.464;-0.150;2023-02-01T08:33:50;102395.79;;;16.66;39.52
49063;BME280;34876;51.464;-0.150;2023-02-01T08:36:19;102389.40;;;16.64;38.89
49063;BME280;34876;51.464;-0.150;2023-02-01T08:38:49;102382.43;;;16.71;39.45
49063;BME280;34876;51.464;-0.150;2023-02-01T08:41:19;102373.32;;;16.68;39.16
49063;BME280;34876;51.464;-0.150;2023-02-01T08:43:49;102371.68;;;16.49;40.08
49063;BME280;34876;51.464;-0.150;2023-02-01T08:46:17;102370.98;;;16.64;39.58
49063;BME280;34876;51.464;-0.150;2023-02-01T08:48:47;102366.24;;;16.83;39.57
49063;BME280;34876;51.464;-0.150;2023-02-01T08:51:18;102364.52;;;16.40;40.08
49063;BME280;34876;51.464;-0.150;2023-02-01T08:53:48;102367.39;;;16.76;40.13
49063;BME280;34876;51.464;-0.150;2023-02-01T08:56:18;102370.22;;;16.58;40.34
49063;BME280;34876;51.464;-0.150;2023-02-01T08:58:47;102379.74;;;16.66;39.37
49063;BME280;34876;51.464;-0.150;2023-02-01T09:01:16;102382.91;;;16.67;39.83
49063;BME280;34876;51.464;-0.150;2023-02-01T09:03:45;102389.64;;;16.81;39.87
49063;BME280;34876;51.464;-0.150;2023-02-01T09:06:15;102390.84;;;16.67;40.82
49063;BME280;34876;51.464;-0.150;2023-02-01T09:08:44;102387.15;;;16.75;41.05
49063;BME280;34876;51.464;-0.150;2023-02-01T09:11:14;102386.06;;;16.74;39.97
49063;BME280;34876;51.464;-0.150;2023-02-01T09:13:44;102386.31;;;16.75;39.19
49063;BME280;34876;51.464;-0.150;2023-02-01T09:16:12;102385.68;;;16.93;39.14
49063;BME280;34876;51.464;-0.150;2023-02-01T09:18:41;102395.99;;;16.81;39.69
49063;BME280;34876;51.464;-0.150;2023-02-01T09:21:10;102387.84;;;16.54;40.35
49063;BME280;34876;51.464;-0.150;2023-02-01T09:23:40;102379.79;;;16.79;40.38
49063;BME280;34876;51.464;-0.150;2023-02-01T09:26:09;102381.60;;;16.48;40.52
49063;BME280;34876;51.464;-0.150;2023-02-01T09:28:38;102374.16;;;16.88;40.25
49063;BME280;34876;51.464;-0.150;2023-02-01T09:31:07;102368.55;;;16.24;39.91
49063;BME280;34876;51.464;-0.150;2023-02-01T09:33:36;102378.58;;;16.71;39.84
49063;BME280;34876;51.464;-0.150;2023-02-01T09:36:07;102387.24;;;16.76;38.70
49063;BME280;34876;51.464;-0.150;2023-02-01T09:38:36;102391.78;;;16.80;39.36
49063;BME280;34876;51.464;-0.150;2023-02-01T09:41:29;102399.03;;;16.68;37.82
49063;BME280;34876;51.464;-0.150;2023-02-01T09:44:11;102398.60;;;16.85;39.20
49063;BME280;34876;51.464;-0.150;2023-02-01T09:46:45;102399.99;;;16.65;39.74
49063;BME280;34876;51.464;-0.150;2023-02-01T09:49:18;102402.43;;;16.76;39.40
49063;BME280;34876;51.464;-0.150;2023-02-01T09:51:51;102400.86;;;16.30;41.08
49063;BME280;34876;51.464;-0.150;2023-02-01T09:54:24;102404.50;;;16.40;41.06
49063;BME280;34876;51.464;-0.150;2023-02-01T09:56:56;102410.04;;;16.92;39.39
49063;BME280;34876;51.464;-0.150;2023-02-01T09:59:33;102410.24;;;16.10;39.02
49063;BME280;34876;51.464;-0.150;2023-02-01T10:02:12;102398.75;;;16.78;39.70
49063;BME280;34876;51.464;-0.150;2023-02-01T10:04:43;102400.52;;;16.94;37.90
49063;BME280;34876;51.464;-0.150;2023-02-01T10:07:22;102401.65;;;16.29;37.66
49063;BME280;34876;51.464;-0.150;2023-02-01T10:09:59;102401.46;;;16.94;40.19
49063;BME280;34876;51.464;-0.150;2023-02-01T10:12:49;102398.76;;;16.95;40.13
49063;BME280;34876;51.464;-0.150;2023-02-01T10:15:30;102394.12;;;16.58;40.21
49063;BME280;34876;51.464;-0.150;2023-02-01T10:19:17;102395.01;;;16.88;40.40
49063;BME280;34876;51.464;-0.150;2023-02-01T10:21:55;102402.22;;;16.75;41.01
49063;BME280;34876;51.464;-0.150;2023-02-01T10:24:40;102397.49;;;17.08;40.27
49063;BME280;34876;51.464;-0.150;2023-02-01T10:27:17;102403.65;;;16.83;40.58
49063;BME280;34876;51.464;-0.150;2023-02-01T10:29:54;102400.43;;;17.16;39.87
49063;BME280;34876;51.464;-0.150;2023-02-01T10:32:28;102400.71;;;17.07;40.62
49063;BME280;34876;51.464;-0.150;2023-02-01T10:35:00;102406.94;;;17.12;39.80
49063;BME280;34876;51.464;-0.150;2023-02-01T10:37:32;102408.58;;;17.14;39.84
49063;BME280;34876;51.464;-0.150;2023-02-01T10:40:16;102415.85;;;17.07;40.45
49063;BME280;34876;51.464;-0.150;2023-02-01T10:42:46;102418.31;;;16.90;40.65
49063;BME280;34876;51.464;-0.150;2023-02-01T10:45:18;102417.60;;;16.94;39.04
49063;BME280;34876;51.464;-0.150;2023-02-01T10:47:49;102421.68;;;17.06;40.61
49063;BME280;34876;51.464;-0.150;2023-02-01T10:50:32;102425.92;;;17.07;41.26
49063;BME280;34876;51.464;-0.150;2023-02-01T10:53:07;102422.57;;;16.95;39.97
49063;BME280;34876;51.464;-0.150;2023-02-01T10:55:41;102428.74;;;17.08;40.68
49063;BME280;34876;51.464;-0.150;2023-02-01T10:58:16;102424.54;;;16.94;40.38
49063;BME280;34876;51.464;-0.150;2023-02-01T11:00:48;102424.75;;;16.94;41.24
49063;BME280;34876;51.464;-0.150;2023-02-01T11:03:37;102421.30;;;16.81;41.42
49063;BME280;34876;51.464;-0.150;2023-02-01T11:06:17;102415.75;;;16.54;37.80
49063;BME280;34876;51.464;-0.150;2023-02-01T11:08:49;102419.26;;;17.04;39.90
49063;BME280;34876;51.464;-0.150;2023-02-01T11:11:19;102415.12;;;17.05;40.02
49063;BME280;34876;51.464;-0.150;2023-02-01T11:13:54;102423.28;;;17.05;40.87
49063;BME280;34876;51.464;-0.150;2023-02-01T11:16:32;102419.68;;;17.08;40.16
49063;BME280;34876;51.464;-0.150;2023-02-01T11:19:02;102410.28;;;17.09;40.26
49063;BME280;34876;51.464;-0.150;2023-02-01T11:21:32;102409.22;;;16.94;40.91
49063;BME280;34876;51.464;-0.150;2023-02-01T11:24:02;102411.38;;;17.00;40.34
49063;BME280;34876;51.464;-0.150;2023-02-01T11:26:32;102413.07;;;17.04;40.74
49063;BME280;34876;51.464;-0.150;2023-02-01T11:29:04;102407.22;;;16.84;40.93
49063;BME280;34876;51.464;-0.150;2023-02-01T11:31:34;102399.04;;;16.82;41.24
49063;BME280;34876;51.464;-0.150;2023-02-01T11:34:08;102403.88;;;16.91;40.54
49063;BME280;34876;51.464;-0.150;2023-02-01T11:36:40;102398.91;;;16.91;40.15
49063;BME280;34876;51.464;-0.150;2023-02-01T11:39:19;102405.04;;;17.03;39.93
49063;BME280;34876;51.464;-0.150;2023-02-01T11:42:11;102396.76;;;16.60;41.41
49063;BME280;34876;51.464;-0.150;2023-02-01T11:44:42;102395.91;;;16.73;41.33
49063;BME280;34876;51.464;-0.150;2023-02-01T11:47:26;102393.00;;;16.85;41.31
49063;BME280;34876;51.464;-0.150;2023-02-01T11:49:57;102384.74;;;16.82;41.15
49063;BME280;34876;51.464;-0.150;2023-02-01T11:52:37;102385.01;;;16.78;41.06
49063;BME280;34876;51.464;-0.150;2023-02-01T11:55:22;102388.96;;;16.51;38.86
49063;BME280;34876;51.464;-0.150;2023-02-01T11:58:06;102389.91;;;16.56;41.31
49063;BME280;34876;51.464;-0.150;2023-02-01T12:00:51;102386.78;;;16.81;40.77
49063;BME280;34876;51.464;-0.150;2023-02-01T12:03:40;102389.80;;;16.98;40.69
49063;BME280;34876;51.464;-0.150;2023-02-01T12:06:19;102391.56;;;16.47;41.90
49063;BME280;34876;51.464;-0.150;2023-02-01T12:09:05;102398.70;;;16.85;41.14
49063;BME280;34876;51.464;-0.150;2023-02-01T12:11:46;102397.70;;;16.77;40.27
49063;BME280;34876;51.464;-0.150;2023-02-01T12:14:28;102392.55;;;16.83;41.65
49063;BME280;34876;51.464;-0.150;2023-02-01T12:17:17;102392.51;;;16.80;41.84
49063;BME280;34876;51.464;-0.150;2023-02-01T12:20:02;102395.60;;;16.46;42.20
49063;BME280;34876;51.464;-0.150;2023-02-01T12:22:45;102398.80;;;16.21;42.05
49063;BME280;34876;51.464;-0.150;2023-02-01T12:25:24;102394.77;;;16.56;41.39
49063;BME280;34876;51.464;-0.150;2023-02-01T12:28:14;102384.85;;;16.77;41.14
49063;BME280;34876;51.464;-0.150;2023-02-01T12:31:33;102387.63;;;16.51;37.98
49063;BME280;34876;51.464;-0.150;2023-02-01T12:34:16;102385.98;;;16.79;41.22
49063;BME280;34876;51.464;-0.150;2023-02-01T12:36:59;102382.16;;;16.35;41.75
49063;BME280;34876;51.464;-0.150;2023-02-01T12:39:37;102383.84;;;16.58;41.16
49063;BME280;34876;51.464;-0.150;2023-02-01T12:42:13;102378.76;;;16.40;41.30
49063;BME280;34876;51.464;-0.150;2023-02-01T12:44:49;102379.28;;;16.47;42.05
49063;BME280;34876;51.464;-0.150;2023-02-01T12:47:24;102374.89;;;16.56;41.14
49063;BME280;34876;51.464;-0.150;2023-02-01T12:49:59;102373.75;;;16.77;39.46
49063;BME280;34876;51.464;-0.150;2023-02-01T12:52:34;102365.21;;;16.21;42.55
49063;BME280;34876;51.464;-0.150;2023-02-01T12:55:10;102368.03;;;16.80;41.02
49063;BME280;34876;51.464;-0.150;2023-02-01T12:57:47;102364.77;;;16.59;40.42
49063;BME280;34876;51.464;-0.150;2023-02-01T13:00:26;102369.28;;;16.91;41.38
49063;BME280;34876;51.464;-0.150;2023-02-01T13:03:02;102368.33;;;16.67;41.58
49063;BME280;34876;51.464;-0.150;2023-02-01T13:05:51;102369.55;;;16.89;41.04
49063;BME280;34876;51.464;-0.150;2023-02-01T13:08:24;102369.31;;;16.53;41.52
49063;BME280;34876;51.464;-0.150;2023-02-01T13:11:00;102362.23;;;16.84;41.34
49063;BME280;34876;51.464;-0.150;2023-02-01T13:13:36;102367.07;;;16.97;40.83
49063;BME280;34876;51.464;-0.150;2023-02-01T13:16:15;102362.02;;;16.74;41.03